sensor_id;sensor_type;location;lat;lon;timestamp;P1;durP1;ratioP1;P2;durP2;ratioP2
26620;SDS011;14253;44.840;10.444;2022-11-12T00:00:53;42.88;;;22.48;;
26620;SDS011;14253;44.840;10.444;2022-11-12T00:03:38;115.53;;;24.92;;
26620;SDS011;14253;44.840;10.444;2022-11-12T00:06:22;96.95;;;26.80;;
26620;SDS011;14253;44.840;10.444;2022-11-12T00:09:07;42.85;;;22.67;;
26620;SDS011;14253;44.840;10.444;2022-11-12T00:11:53;32.78;;;22.00;;
26620;SDS011;14253;44.840;10.444;2022-11-12T00:14:38;38.33;;;23.17;;
26620;SDS011;14253;44.840;10.444;2022-11-12T00:17:22;39.88;;;24.48;;
26620;SDS011;14253;44.840;10.444;2022-11-12T00:20:07;34.35;;;21.73;;
26620;SDS011;14253;44.840;10.444;2022-11-12T00:22:53;36.55;;;22.15;;
26620;SDS011;14253;44.840;10.444;2022-11-12T00:25:39;36.38;;;21.95;;
26620;SDS011;14253;44.840;10.444;2022-11-12T00:28:26;36.83;;;23.90;;
26620;SDS011;14253;44.840;10.444;2022-11-12T00:31:12;41.83;;;23.35;;
26620;SDS011;14253;44.840;10.444;2022-11-12T00:33:56;36.25;;;22.08;;
26620;SDS011;14253;44.840;10.444;2022-11-12T00:36:41;35.58;;;21.38;;
26620;SDS011;14253;44.840;10.444;2022-11-12T00:39:28;34.38;;;21.55;;
26620;SDS011;14253;44.840;10.444;2022-11-12T00:42:13;32.80;;;20.55;;
26620;SDS011;14253;44.840;10.444;2022-11-12T00:44:57;34.85;;;20.60;;
26620;SDS011;14253;44.840;10.444;2022-11-12T00:47:42;32.60;;;19.98;;
26620;SDS011;14253;44.840;10.444;2022-11-12T00:50:27;33.88;;;19.42;;
26620;SDS011;14253;44.840;10.444;2022-11-12T00:53:11;34.25;;;18.90;;
26620;SDS011;14253;44.840;10.444;2022-11-12T00:56:00;32.65;;;20.45;;
26620;SDS011;14253;44.840;10.444;2022-11-12T00:58:48;33.60;;;19.77;;
26620;SDS011;14253;44.840;10.444;2022-11-12T01:01:33;30.75;;;19.70;;
26620;SDS011;14253;44.840;10.444;2022-11-12T01:04:18;29.13;;;18.35;;
26620;SDS011;14253;44.840;10.444;2022-11-12T01:07:02;33.72;;;19.92;;
26620;SDS011;14253;44.840;10.444;2022-11-12T01:09:47;30.67;;;18.90;;
26620;SDS011;14253;44.840;10.444;2022-11-12T01:12:35;32.28;;;18.90;;
26620;SDS011;14253;44.840;10.444;2022-11-12T01:15:19;35.30;;;19.73;;
26620;SDS011;14253;44.840;10.444;2022-11-12T01:18:04;37.00;;;20.08;;
26620;SDS011;14253;44.840;10.444;2022-11-12T01:20:48;32.03;;;19.45;;
26620;SDS011;14253;44.840;10.444;2022-11-12T01:23:33;33.40;;;19.98;;
26620;SDS011;14253;44.840;10.444;2022-11-12T01:26:30;31.90;;;18.30;;
26620;SDS011;14253;44.840;10.444;2022-11-12T01:29:40;36.78;;;21.40;;
26620;SDS011;14253;44.840;10.444;2022-11-12T01:32:25;35.45;;;20.50;;
26620;SDS011;14253;44.840;10.444;2022-11-12T01:35:10;36.50;;;19.98;;
26620;SDS011;14253;44.840;10.444;2022-11-12T01:37:55;34.92;;;18.95;;
26620;SDS011;14253;44.840;10.444;2022-11-12T01:40:39;33.08;;;18.63;;
26620;SDS011;14253;44.840;10.444;2022-11-12T01:43:24;46.15;;;24.52;;
26620;SDS011;14253;44.840;10.444;2022-11-12T01:46:19;52.28;;;26.58;;
26620;SDS011;14253;44.840;10.444;2022-11-12T01:49:09;47.10;;;24.73;;
26620;SDS011;14253;44.840;10.444;2022-11-12T01:51:58;48.92;;;25.27;;
26620;SDS011;14253;44.840;10.444;2022-11-12T01:54:50;52.20;;;25.92;;
26620;SDS011;14253;44.840;10.444;2022-11-12T01:57:39;47.53;;;25.20;;
26620;SDS011;14253;44.840;10.444;2022-11-12T02:00:28;48.22;;;24.38;;
26620;SDS011;14253;44.840;10.444;2022-11-12T02:03:20;45.78;;;25.20;;
26620;SDS011;14253;44.840;10.444;2022-11-12T02:06:07;48.70;;;23.90;;
26620;SDS011;14253;44.840;10.444;2022-11-12T02:08:53;51.90;;;24.70;;
26620;SDS011;14253;44.840;10.444;2022-11-12T02:11:39;52.38;;;25.48;;
26620;SDS011;14253;44.840;10.444;2022-11-12T02:14:23;49.70;;;25.25;;
26620;SDS011;14253;44.840;10.444;2022-11-12T02:17:08;45.72;;;25.20;;
26620;SDS011;14253;44.840;10.444;2022-11-12T02:19:53;48.20;;;26.02;;
26620;SDS011;14253;44.840;10.444;2022-11-12T02:22:44;46.53;;;25.70;;
26620;SDS011;14253;44.840;10.444;2022-11-12T02:25:28;50.58;;;25.42;;
26620;SDS011;14253;44.840;10.444;2022-11-12T02:28:13;48.17;;;24.70;;
26620;SDS011;14253;44.840;10.444;2022-11-12T02:30:58;44.83;;;24.15;;
26620;SDS011;14253;44.840;10.444;2022-11-12T02:33:43;53.58;;;25.35;;
26620;SDS011;14253;44.840;10.444;2022-11-12T02:36:28;48.45;;;23.77;;
26620;SDS011;14253;44.840;10.444;2022-11-12T02:39:12;47.13;;;24.65;;
26620;SDS011;14253;44.840;10.444;2022-11-12T02:41:57;48.70;;;24.38;;
26620;SDS011;14253;44.840;10.444;2022-11-12T02:44:42;50.80;;;25.05;;
26620;SDS011;14253;44.840;10.444;2022-11-12T02:47:26;46.22;;;24.90;;
26620;SDS011;14253;44.840;10.444;2022-11-12T02:50:11;48.78;;;25.70;;
26620;SDS011;14253;44.840;10.444;2022-11-12T02:52:55;46.03;;;23.58;;
26620;SDS011;14253;44.840;10.444;2022-11-12T02:55:41;46.13;;;24.98;;
26620;SDS011;14253;44.840;10.444;2022-11-12T02:58:27;48.75;;;24.95;;
26620;SDS011;14253;44.840;10.444;2022-11-12T03:01:12;55.30;;;25.90;;
26620;SDS011;14253;44.840;10.444;2022-11-12T03:03:56;46.45;;;23.67;;
26620;SDS011;14253;44.840;10.444;2022-11-12T03:06:41;51.25;;;24.83;;
26620;SDS011;14253;44.840;10.444;2022-11-12T03:09:26;47.67;;;24.08;;
26620;SDS011;14253;44.840;10.444;2022-11-12T03:12:10;48.33;;;24.25;;
26620;SDS011;14253;44.840;10.444;2022-11-12T03:14:55;50.42;;;25.88;;
26620;SDS011;14253;44.840;10.444;2022-11-12T03:17:39;47.38;;;23.10;;
26620;SDS011;14253;44.840;10.444;2022-11-12T03:20:24;46.47;;;23.27;;
26620;SDS011;14253;44.840;10.444;2022-11-12T03:23:09;43.67;;;21.95;;
26620;SDS011;14253;44.840;10.444;2022-11-12T03:25:54;46.40;;;23.08;;
26620;SDS011;14253;44.840;10.444;2022-11-12T03:28:39;46.05;;;22.60;;
26620;SDS011;14253;44.840;10.444;2022-11-12T03:31:23;48.47;;;23.13;;
26620;SDS011;14253;44.840;10.444;2022-11-12T03:34:09;45.20;;;23.42;;
26620;SDS011;14253;44.840;10.444;2022-11-12T03:36:53;44.75;;;22.38;;
26620;SDS011;14253;44.840;10.444;2022-11-12T03:39:38;46.90;;;22.50;;
26620;SDS011;14253;44.840;10.444;2022-11-12T03:42:22;45.33;;;24.67;;
26620;SDS011;14253;44.840;10.444;2022-11-12T03:45:07;48.10;;;24.02;;
26620;SDS011;14253;44.840;10.444;2022-11-12T03:47:53;41.70;;;22.00;;
26620;SDS011;14253;44.840;10.444;2022-11-12T03:50:39;38.00;;;19.98;;
26620;SDS011;14253;44.840;10.444;2022-11-12T03:53:24;43.72;;;21.95;;
26620;SDS011;14253;44.840;10.444;2022-11-12T03:56:09;40.88;;;21.38;;
26620;SDS011;14253;44.840;10.444;2022-11-12T03:58:54;41.17;;;20.92;;
26620;SDS011;14253;44.840;10.444;2022-11-12T04:01:38;36.83;;;20.10;;
26620;SDS011;14253;44.840;10.444;2022-11-12T04:04:23;35.63;;;19.67;;
26620;SDS011;14253;44.840;10.444;2022-11-12T04:07:27;41.25;;;20.88;;
26620;SDS011;14253;44.840;10.444;2022-11-12T04:10:30;36.60;;;19.35;;
26620;SDS011;14253;44.840;10.444;2022-11-12T04:13:15;39.53;;;20.33;;
26620;SDS011;14253;44.840;10.444;2022-11-12T04:16:12;36.90;;;20.23;;
26620;SDS011;14253;44.840;10.444;2022-11-12T04:19:17;34.95;;;19.77;;
26620;SDS011;14253;44.840;10.444;2022-11-12T04:22:20;39.42;;;19.65;;
26620;SDS011;14253;44.840;10.444;2022-11-12T04:25:05;32.25;;;18.90;;
26620;SDS011;14253;44.840;10.444;2022-11-12T04:28:08;36.50;;;19.70;;
26620;SDS011;14253;44.840;10.444;2022-11-12T04:30:52;37.22;;;19.30;;
26620;SDS011;14253;44.840;10.444;2022-11-12T04:33:37;35.67;;;19.38;;
26620;SDS011;14253;44.840;10.444;2022-11-12T04:36:21;34.90;;;18.83;;
26620;SDS011;14253;44.840;10.444;2022-11-12T04:39:06;33.78;;;18.40;;
26620;SDS011;14253;44.840;10.444;2022-11-12T04:41:51;35.70;;;18.40;;
26620;SDS011;14253;44.840;10.444;2022-11-12T04:44:54;35.08;;;18.17;;
26620;SDS011;14253;44.840;10.444;2022-11-12T04:47:46;33.40;;;17.90;;
26620;SDS011;14253;44.840;10.444;2022-11-12T04:50:31;32.78;;;18.08;;
26620;SDS011;14253;44.840;10.444;2022-11-12T04:53:15;35.15;;;18.92;;
26620;SDS011;14253;44.840;10.444;2022-11-12T04:56:00;34.05;;;17.80;;
26620;SDS011;14253;44.840;10.444;2022-11-12T04:58:44;33.35;;;18.23;;
26620;SDS011;14253;44.840;10.444;2022-11-12T05:01:29;31.75;;;17.98;;
26620;SDS011;14253;44.840;10.444;2022-11-12T05:04:14;32.83;;;18.00;;
26620;SDS011;14253;44.840;10.444;2022-11-12T05:06:58;32.45;;;16.95;;
26620;SDS011;14253;44.840;10.444;2022-11-12T05:09:43;34.22;;;18.25;;
26620;SDS011;14253;44.840;10.444;2022-11-12T05:12:28;30.30;;;17.30;;
26620;SDS011;14253;44.840;10.444;2022-11-12T05:15:12;32.47;;;17.58;;
26620;SDS011;14253;44.840;10.444;2022-11-12T05:17:57;31.85;;;16.98;;
26620;SDS011;14253;44.840;10.444;2022-11-12T05:20:42;28.83;;;15.65;;
26620;SDS011;14253;44.840;10.444;2022-11-12T05:23:26;29.27;;;16.42;;
26620;SDS011;14253;44.840;10.444;2022-11-12T05:26:11;28.50;;;16.45;;
26620;SDS011;14253;44.840;10.444;2022-11-12T05:28:55;30.83;;;17.48;;
26620;SDS011;14253;44.840;10.444;2022-11-12T05:31:40;31.80;;;16.95;;
26620;SDS011;14253;44.840;10.444;2022-11-12T05:34:24;27.45;;;16.25;;
26620;SDS011;14253;44.840;10.444;2022-11-12T05:37:10;27.77;;;16.15;;
26620;SDS011;14253;44.840;10.444;2022-11-12T05:39:55;31.42;;;16.50;;
26620;SDS011;14253;44.840;10.444;2022-11-12T05:42:40;30.42;;;16.25;;
26620;SDS011;14253;44.840;10.444;2022-11-12T05:45:25;32.38;;;17.25;;
26620;SDS011;14253;44.840;10.444;2022-11-12T05:48:09;28.42;;;15.90;;
26620;SDS011;14253;44.840;10.444;2022-11-12T05:50:54;28.75;;;15.02;;
26620;SDS011;14253;44.840;10.444;2022-11-12T05:53:39;29.02;;;14.60;;
26620;SDS011;14253;44.840;10.444;2022-11-12T05:56:26;27.92;;;15.35;;
26620;SDS011;14253;44.840;10.444;2022-11-12T05:59:11;32.70;;;16.17;;
26620;SDS011;14253;44.840;10.444;2022-11-12T06:01:56;28.48;;;15.82;;
26620;SDS011;14253;44.840;10.444;2022-11-12T06:04:41;30.02;;;16.58;;
26620;SDS011;14253;44.840;10.444;2022-11-12T06:07:26;30.90;;;16.38;;
26620;SDS011;14253;44.840;10.444;2022-11-12T06:10:10;29.48;;;16.65;;
26620;SDS011;14253;44.840;10.444;2022-11-12T06:12:55;26.77;;;16.05;;
26620;SDS011;14253;44.840;10.444;2022-11-12T06:15:39;31.13;;;17.23;;
26620;SDS011;14253;44.840;10.444;2022-11-12T06:18:24;35.00;;;17.08;;
26620;SDS011;14253;44.840;10.444;2022-11-12T06:21:09;31.13;;;17.27;;
26620;SDS011;14253;44.840;10.444;2022-11-12T06:24:06;30.80;;;16.98;;
26620;SDS011;14253;44.840;10.444;2022-11-12T06:26:51;31.40;;;17.10;;
26620;SDS011;14253;44.840;10.444;2022-11-12T06:29:35;29.30;;;16.75;;
26620;SDS011;14253;44.840;10.444;2022-11-12T06:32:21;23.00;;;13.57;;
26620;SDS011;14253;44.840;10.444;2022-11-12T06:35:09;24.48;;;14.00;;
26620;SDS011;14253;44.840;10.444;2022-11-12T06:37:53;25.77;;;14.52;;
26620;SDS011;14253;44.840;10.444;2022-11-12T06:40:38;24.52;;;14.52;;
26620;SDS011;14253;44.840;10.444;2022-11-12T06:43:23;25.05;;;14.45;;
26620;SDS011;14253;44.840;10.444;2022-11-12T06:46:12;24.70;;;13.73;;
26620;SDS011;14253;44.840;10.444;2022-11-12T06:49:04;25.65;;;14.65;;
26620;SDS011;14253;44.840;10.444;2022-11-12T06:52:07;29.25;;;16.67;;
26620;SDS011;14253;44.840;10.444;2022-11-12T06:55:06;23.02;;;13.85;;
26620;SDS011;14253;44.840;10.444;2022-11-12T06:57:51;23.35;;;12.93;;
26620;SDS011;14253;44.840;10.444;2022-11-12T07:00:39;22.60;;;12.68;;
26620;SDS011;14253;44.840;10.444;2022-11-12T07:03:32;20.55;;;12.75;;
26620;SDS011;14253;44.840;10.444;2022-11-12T07:06:16;17.40;;;11.55;;
26620;SDS011;14253;44.840;10.444;2022-11-12T07:09:03;19.27;;;11.98;;
26620;SDS011;14253;44.840;10.444;2022-11-12T07:14:39;18.95;;;11.65;;
26620;SDS011;14253;44.840;10.444;2022-11-12T07:17:23;21.23;;;12.27;;
26620;SDS011;14253;44.840;10.444;2022-11-12T07:20:08;18.75;;;11.55;;
26620;SDS011;14253;44.840;10.444;2022-11-12T07:22:53;21.98;;;11.18;;
26620;SDS011;14253;44.840;10.444;2022-11-12T07:25:42;16.02;;;11.02;;
26620;SDS011;14253;44.840;10.444;2022-11-12T07:28:26;19.42;;;11.77;;
26620;SDS011;14253;44.840;10.444;2022-11-12T07:31:12;16.98;;;11.35;;
26620;SDS011;14253;44.840;10.444;2022-11-12T07:33:58;16.58;;;10.50;;
26620;SDS011;14253;44.840;10.444;2022-11-12T07:36:43;17.52;;;10.75;;
26620;SDS011;14253;44.840;10.444;2022-11-12T07:39:28;18.20;;;12.02;;
26620;SDS011;14253;44.840;10.444;2022-11-12T07:42:12;32.55;;;14.80;;
26620;SDS011;14253;44.840;10.444;2022-11-12T07:44:57;20.35;;;12.20;;
26620;SDS011;14253;44.840;10.444;2022-11-12T07:47:41;21.17;;;12.38;;
26620;SDS011;14253;44.840;10.444;2022-11-12T07:50:26;18.20;;;11.13;;
26620;SDS011;14253;44.840;10.444;2022-11-12T07:53:11;17.80;;;10.60;;
26620;SDS011;14253;44.840;10.444;2022-11-12T07:55:56;19.45;;;10.43;;
26620;SDS011;14253;44.840;10.444;2022-11-12T07:58:42;18.65;;;11.18;;
26620;SDS011;14253;44.840;10.444;2022-11-12T08:04:21;19.30;;;11.27;;
26620;SDS011;14253;44.840;10.444;2022-11-12T08:07:06;21.08;;;10.70;;
26620;SDS011;14253;44.840;10.444;2022-11-12T08:09:51;17.70;;;11.57;;
26620;SDS011;14253;44.840;10.444;2022-11-12T08:12:36;14.02;;;8.88;;
26620;SDS011;14253;44.840;10.444;2022-11-12T08:15:20;17.77;;;10.55;;
26620;SDS011;14253;44.840;10.444;2022-11-12T08:18:05;19.98;;;10.05;;
26620;SDS011;14253;44.840;10.444;2022-11-12T08:20:50;15.75;;;9.85;;
26620;SDS011;14253;44.840;10.444;2022-11-12T08:23:34;15.27;;;10.20;;
26620;SDS011;14253;44.840;10.444;2022-11-12T08:26:19;15.80;;;10.18;;
26620;SDS011;14253;44.840;10.444;2022-11-12T08:29:04;16.67;;;11.20;;
26620;SDS011;14253;44.840;10.444;2022-11-12T08:31:49;15.50;;;10.63;;
26620;SDS011;14253;44.840;10.444;2022-11-12T08:34:34;15.25;;;10.50;;
26620;SDS011;14253;44.840;10.444;2022-11-12T08:37:22;14.90;;;9.98;;
26620;SDS011;14253;44.840;10.444;2022-11-12T08:40:07;12.13;;;9.50;;
26620;SDS011;14253;44.840;10.444;2022-11-12T08:42:56;14.68;;;9.15;;
26620;SDS011;14253;44.840;10.444;2022-11-12T08:45:58;15.02;;;9.75;;
26620;SDS011;14253;44.840;10.444;2022-11-12T08:48:51;15.63;;;9.63;;
26620;SDS011;14253;44.840;10.444;2022-11-12T08:51:36;13.55;;;9.15;;
26620;SDS011;14253;44.840;10.444;2022-11-12T08:54:20;16.83;;;9.75;;
26620;SDS011;14253;44.840;10.444;2022-11-12T08:57:05;12.82;;;8.43;;
26620;SDS011;14253;44.840;10.444;2022-11-12T08:59:49;12.27;;;7.68;;
26620;SDS011;14253;44.840;10.444;2022-11-12T09:02:34;12.50;;;8.15;;
26620;SDS011;14253;44.840;10.444;2022-11-12T09:05:19;11.65;;;7.75;;
26620;SDS011;14253;44.840;10.444;2022-11-12T09:08:04;11.90;;;7.80;;
26620;SDS011;14253;44.840;10.444;2022-11-12T09:10:51;14.80;;;8.00;;
26620;SDS011;14253;44.840;10.444;2022-11-12T09:13:36;11.98;;;7.97;;
26620;SDS011;14253;44.840;10.444;2022-11-12T09:16:21;11.95;;;9.02;;
26620;SDS011;14253;44.840;10.444;2022-11-12T09:19:06;11.70;;;8.10;;
26620;SDS011;14253;44.840;10.444;2022-11-12T09:21:51;11.07;;;8.00;;
26620;SDS011;14253;44.840;10.444;2022-11-12T09:24:35;11.23;;;8.07;;
26620;SDS011;14253;44.840;10.444;2022-11-12T09:27:20;9.93;;;7.18;;
26620;SDS011;14253;44.840;10.444;2022-11-12T09:30:05;9.77;;;7.82;;
26620;SDS011;14253;44.840;10.444;2022-11-12T09:32:55;12.45;;;7.82;;
26620;SDS011;14253;44.840;10.444;2022-11-12T09:35:40;10.18;;;7.50;;
26620;SDS011;14253;44.840;10.444;2022-11-12T09:38:25;11.65;;;7.80;;
26620;SDS011;14253;44.840;10.444;2022-11-12T09:41:15;12.15;;;7.82;;
26620;SDS011;14253;44.840;10.444;2022-11-12T09:44:30;11.25;;;7.95;;
26620;SDS011;14253;44.840;10.444;2022-11-12T09:47:18;14.93;;;7.55;;
26620;SDS011;14253;44.840;10.444;2022-11-12T09:50:29;10.57;;;7.00;;
26620;SDS011;14253;44.840;10.444;2022-11-12T09:56:14;8.27;;;6.75;;
26620;SDS011;14253;44.840;10.444;2022-11-12T09:59:01;9.85;;;6.45;;
26620;SDS011;14253;44.840;10.444;2022-11-12T10:01:56;8.82;;;6.85;;
26620;SDS011;14253;44.840;10.444;2022-11-12T10:14:14;10.45;;;7.30;;
26620;SDS011;14253;44.840;10.444;2022-11-12T10:17:25;11.18;;;7.63;;
26620;SDS011;14253;44.840;10.444;2022-11-12T10:23:16;11.18;;;7.35;;
26620;SDS011;14253;44.840;10.444;2022-11-12T10:26:23;12.25;;;7.75;;
26620;SDS011;14253;44.840;10.444;2022-11-12T10:31:54;12.88;;;8.55;;
26620;SDS011;14253;44.840;10.444;2022-11-12T10:34:39;13.70;;;8.75;;
26620;SDS011;14253;44.840;10.444;2022-11-12T10:40:27;10.02;;;7.70;;
26620;SDS011;14253;44.840;10.444;2022-11-12T10:46:17;16.30;;;9.40;;
26620;SDS011;14253;44.840;10.444;2022-11-12T10:49:25;13.32;;;8.38;;
26620;SDS011;14253;44.840;10.444;2022-11-12T10:52:22;13.05;;;8.77;;
26620;SDS011;14253;44.840;10.444;2022-11-12T11:01:00;16.10;;;10.15;;
26620;SDS011;14253;44.840;10.444;2022-11-12T11:03:49;17.15;;;11.07;;
26620;SDS011;14253;44.840;10.444;2022-11-12T11:06:39;17.17;;;11.07;;
26620;SDS011;14253;44.840;10.444;2022-11-12T11:09:24;19.75;;;12.57;;
26620;SDS011;14253;44.840;10.444;2022-11-12T11:12:23;25.08;;;12.07;;
26620;SDS011;14253;44.840;10.444;2022-11-12T11:18:07;26.02;;;15.02;;
26620;SDS011;14253;44.840;10.444;2022-11-12T11:21:05;23.38;;;14.20;;
26620;SDS011;14253;44.840;10.444;2022-11-12T11:27:09;22.25;;;14.00;;
26620;SDS011;14253;44.840;10.444;2022-11-12T11:30:10;24.98;;;16.65;;
26620;SDS011;14253;44.840;10.444;2022-11-12T11:38:50;31.30;;;17.98;;
26620;SDS011;14253;44.840;10.444;2022-11-12T11:47:45;45.03;;;26.92;;
26620;SDS011;14253;44.840;10.444;2022-11-12T11:56:33;53.92;;;29.70;;
26620;SDS011;14253;44.840;10.444;2022-11-12T12:02:30;49.45;;;28.13;;
26620;SDS011;14253;44.840;10.444;2022-11-12T12:17:17;58.13;;;34.05;;
26620;SDS011;14253;44.840;10.444;2022-11-12T12:20:25;51.42;;;30.35;;
26620;SDS011;14253;44.840;10.444;2022-11-12T12:29:47;54.00;;;31.08;;
26620;SDS011;14253;44.840;10.444;2022-11-12T12:32:36;54.00;;;31.23;;
26620;SDS011;14253;44.840;10.444;2022-11-12T12:44:40;54.88;;;32.17;;
26620;SDS011;14253;44.840;10.444;2022-11-12T12:47:42;54.10;;;33.20;;
26620;SDS011;14253;44.840;10.444;2022-11-12T12:50:29;57.45;;;33.67;;
26620;SDS011;14253;44.840;10.444;2022-11-12T12:58:55;58.78;;;33.95;;
26620;SDS011;14253;44.840;10.444;2022-11-12T13:01:52;59.88;;;35.05;;
26620;SDS011;14253;44.840;10.444;2022-11-12T13:04:50;59.95;;;34.53;;
26620;SDS011;14253;44.840;10.444;2022-11-12T13:13:28;67.38;;;37.40;;
26620;SDS011;14253;44.840;10.444;2022-11-12T13:16:54;61.30;;;35.47;;
26620;SDS011;14253;44.840;10.444;2022-11-12T13:22:48;61.47;;;36.60;;
26620;SDS011;14253;44.840;10.444;2022-11-12T13:25:33;72.18;;;38.85;;
26620;SDS011;14253;44.840;10.444;2022-11-12T13:28:18;66.35;;;37.00;;
26620;SDS011;14253;44.840;10.444;2022-11-12T13:31:03;60.88;;;35.85;;
26620;SDS011;14253;44.840;10.444;2022-11-12T13:34:24;67.88;;;38.63;;
26620;SDS011;14253;44.840;10.444;2022-11-12T13:37:19;69.32;;;38.80;;
26620;SDS011;14253;44.840;10.444;2022-11-12T13:40:08;70.85;;;39.72;;
26620;SDS011;14253;44.840;10.444;2022-11-12T13:42:57;63.30;;;38.13;;
26620;SDS011;14253;44.840;10.444;2022-11-12T13:48:43;65.53;;;36.70;;
26620;SDS011;14253;44.840;10.444;2022-11-12T13:51:42;63.72;;;37.53;;
26620;SDS011;14253;44.840;10.444;2022-11-12T13:54:32;74.50;;;41.38;;
26620;SDS011;14253;44.840;10.444;2022-11-12T14:00:10;67.18;;;37.30;;
26620;SDS011;14253;44.840;10.444;2022-11-12T14:03:13;76.35;;;40.70;;
26620;SDS011;14253;44.840;10.444;2022-11-12T14:06:02;69.18;;;41.42;;
26620;SDS011;14253;44.840;10.444;2022-11-12T14:09:09;67.82;;;40.85;;
26620;SDS011;14253;44.840;10.444;2022-11-12T14:12:09;59.88;;;36.33;;
26620;SDS011;14253;44.840;10.444;2022-11-12T14:18:28;60.95;;;34.88;;
26620;SDS011;14253;44.840;10.444;2022-11-12T14:21:34;59.40;;;34.25;;
26620;SDS011;14253;44.840;10.444;2022-11-12T14:24:18;61.60;;;34.75;;
26620;SDS011;14253;44.840;10.444;2022-11-12T14:27:03;64.18;;;36.60;;
26620;SDS011;14253;44.840;10.444;2022-11-12T14:29:48;60.72;;;34.55;;
26620;SDS011;14253;44.840;10.444;2022-11-12T14:32:48;59.92;;;34.38;;
26620;SDS011;14253;44.840;10.444;2022-11-12T14:35:35;57.15;;;33.63;;
26620;SDS011;14253;44.840;10.444;2022-11-12T14:43:55;61.03;;;35.13;;
26620;SDS011;14253;44.840;10.444;2022-11-12T14:46:48;54.45;;;32.80;;
26620;SDS011;14253;44.840;10.444;2022-11-12T14:49:41;61.40;;;34.78;;
26620;SDS011;14253;44.840;10.444;2022-11-12T14:52:29;61.85;;;32.72;;
26620;SDS011;14253;44.840;10.444;2022-11-12T14:55:22;56.80;;;33.72;;
26620;SDS011;14253;44.840;10.444;2022-11-12T14:58:16;62.03;;;34.17;;
26620;SDS011;14253;44.840;10.444;2022-11-12T15:01:18;57.97;;;33.65;;
26620;SDS011;14253;44.840;10.444;2022-11-12T15:06:55;54.72;;;31.83;;
26620;SDS011;14253;44.840;10.444;2022-11-12T15:09:41;53.67;;;32.22;;
26620;SDS011;14253;44.840;10.444;2022-11-12T15:12:30;54.92;;;33.95;;
26620;SDS011;14253;44.840;10.444;2022-11-12T15:15:20;52.97;;;32.80;;
26620;SDS011;14253;44.840;10.444;2022-11-12T15:18:13;57.55;;;35.17;;
26620;SDS011;14253;44.840;10.444;2022-11-12T15:26:48;57.00;;;35.15;;
26620;SDS011;14253;44.840;10.444;2022-11-12T15:29:33;59.33;;;36.50;;
26620;SDS011;14253;44.840;10.444;2022-11-12T15:35:03;64.30;;;36.97;;
26620;SDS011;14253;44.840;10.444;2022-11-12T15:37:48;58.22;;;34.10;;
26620;SDS011;14253;44.840;10.444;2022-11-12T15:40:39;54.55;;;33.75;;
26620;SDS011;14253;44.840;10.444;2022-11-12T15:43:28;54.75;;;34.10;;
26620;SDS011;14253;44.840;10.444;2022-11-12T15:46:19;55.20;;;34.15;;
26620;SDS011;14253;44.840;10.444;2022-11-12T15:49:10;62.13;;;35.10;;
26620;SDS011;14253;44.840;10.444;2022-11-12T15:51:56;62.65;;;34.65;;
26620;SDS011;14253;44.840;10.444;2022-11-12T15:54:41;59.97;;;35.42;;
26620;SDS011;14253;44.840;10.444;2022-11-12T15:57:26;60.08;;;35.60;;
26620;SDS011;14253;44.840;10.444;2022-11-12T16:06:04;73.32;;;39.53;;
26620;SDS011;14253;44.840;10.444;2022-11-12T16:08:49;57.97;;;36.03;;
26620;SDS011;14253;44.840;10.444;2022-11-12T16:11:33;65.78;;;36.92;;
26620;SDS011;14253;44.840;10.444;2022-11-12T16:14:18;62.95;;;37.80;;
26620;SDS011;14253;44.840;10.444;2022-11-12T16:17:02;72.57;;;37.83;;
26620;SDS011;14253;44.840;10.444;2022-11-12T16:19:47;64.20;;;36.97;;
26620;SDS011;14253;44.840;10.444;2022-11-12T16:22:32;71.78;;;38.42;;
26620;SDS011;14253;44.840;10.444;2022-11-12T16:25:17;66.65;;;39.00;;
26620;SDS011;14253;44.840;10.444;2022-11-12T16:28:03;71.65;;;39.75;;
26620;SDS011;14253;44.840;10.444;2022-11-12T16:30:55;85.22;;;42.80;;
26620;SDS011;14253;44.840;10.444;2022-11-12T16:33:39;69.63;;;37.97;;
26620;SDS011;14253;44.840;10.444;2022-11-12T16:36:24;70.80;;;38.33;;
26620;SDS011;14253;44.840;10.444;2022-11-12T16:39:10;68.30;;;39.60;;
26620;SDS011;14253;44.840;10.444;2022-11-12T16:41:56;78.10;;;41.20;;
26620;SDS011;14253;44.840;10.444;2022-11-12T16:44:40;76.47;;;41.90;;
26620;SDS011;14253;44.840;10.444;2022-11-12T16:47:25;76.60;;;40.88;;
26620;SDS011;14253;44.840;10.444;2022-11-12T16:50:10;74.00;;;41.42;;
26620;SDS011;14253;44.840;10.444;2022-11-12T16:52:57;70.85;;;39.83;;
26620;SDS011;14253;44.840;10.444;2022-11-12T16:55:42;80.05;;;42.00;;
26620;SDS011;14253;44.840;10.444;2022-11-12T16:58:27;70.03;;;38.90;;
26620;SDS011;14253;44.840;10.444;2022-11-12T17:04:07;73.63;;;38.17;;
26620;SDS011;14253;44.840;10.444;2022-11-12T17:06:51;76.07;;;39.47;;
26620;SDS011;14253;44.840;10.444;2022-11-12T17:09:36;68.93;;;38.85;;
26620;SDS011;14253;44.840;10.444;2022-11-12T17:12:21;74.40;;;39.72;;
26620;SDS011;14253;44.840;10.444;2022-11-12T17:15:06;66.50;;;36.92;;
26620;SDS011;14253;44.840;10.444;2022-11-12T17:17:52;70.82;;;39.33;;
26620;SDS011;14253;44.840;10.444;2022-11-12T17:20:37;77.80;;;41.60;;
26620;SDS011;14253;44.840;10.444;2022-11-12T17:23:22;66.70;;;37.33;;
26620;SDS011;14253;44.840;10.444;2022-11-12T17:26:11;70.57;;;38.53;;
26620;SDS011;14253;44.840;10.444;2022-11-12T17:28:58;66.93;;;37.43;;
26620;SDS011;14253;44.840;10.444;2022-11-12T17:31:46;69.65;;;37.90;;
26620;SDS011;14253;44.840;10.444;2022-11-12T17:34:34;77.63;;;39.95;;
26620;SDS011;14253;44.840;10.444;2022-11-12T17:37:19;73.50;;;38.92;;
26620;SDS011;14253;44.840;10.444;2022-11-12T17:40:07;69.32;;;39.45;;
26620;SDS011;14253;44.840;10.444;2022-11-12T17:42:53;72.68;;;40.75;;
26620;SDS011;14253;44.840;10.444;2022-11-12T17:45:38;90.30;;;50.28;;
26620;SDS011;14253;44.840;10.444;2022-11-12T17:48:33;114.80;;;62.08;;
26620;SDS011;14253;44.840;10.444;2022-11-12T17:51:22;77.78;;;40.72;;
26620;SDS011;14253;44.840;10.444;2022-11-12T17:54:09;75.82;;;41.60;;
26620;SDS011;14253;44.840;10.444;2022-11-12T17:56:54;76.05;;;41.53;;
26620;SDS011;14253;44.840;10.444;2022-11-12T17:59:41;75.95;;;42.13;;
26620;SDS011;14253;44.840;10.444;2022-11-12T18:02:36;81.25;;;41.03;;
26620;SDS011;14253;44.840;10.444;2022-11-12T18:05:32;78.90;;;42.70;;
26620;SDS011;14253;44.840;10.444;2022-11-12T18:08:17;76.43;;;40.65;;
26620;SDS011;14253;44.840;10.444;2022-11-12T18:11:01;73.28;;;38.97;;
26620;SDS011;14253;44.840;10.444;2022-11-12T18:13:46;77.45;;;41.30;;
26620;SDS011;14253;44.840;10.444;2022-11-12T18:16:31;80.63;;;40.45;;
26620;SDS011;14253;44.840;10.444;2022-11-12T18:19:16;78.53;;;41.15;;
26620;SDS011;14253;44.840;10.444;2022-11-12T18:22:00;75.65;;;39.50;;
26620;SDS011;14253;44.840;10.444;2022-11-12T18:24:48;74.50;;;41.03;;
26620;SDS011;14253;44.840;10.444;2022-11-12T18:27:32;71.80;;;39.55;;
26620;SDS011;14253;44.840;10.444;2022-11-12T18:30:17;62.78;;;36.72;;